Time;durP1;ratioP1;P1;durP2;ratioP2;P2;SDS_P1;SDS_P2;PMS_P1;PMS_P2;Temp;Humidity;BMP_temperature;BMP_pressure;BME280_temperature;BME280_humidity;BME280_pressure;Samples;Min_cycle;Max_cycle;Signal;HPM_P1;HPM_P2
2023/05/09 00:01:42;;;;;;;45.40;26.70;;;;;;;13.92;100.00;101590.56;10527588;28;20128;-81
2023/05/09 00:06:43;;;;;;;51.63;31.00;;;;;;;13.81;100.00;101571.66;10527054;28;20446;-81
2023/05/09 00:11:43;;;;;;;47.15;28.85;;;;;;;13.70;100.00;101565.00;10511293;28;20097;-81
2023/05/09 00:16:44;;;;;;;51.45;28.63;;;;;;;13.57;100.00;101561.81;10494482;28;20135;-81
2023/05/09 00:21:44;;;;;;;47.05;28.25;;;;;;;13.42;100.00;101561.97;10527821;28;20399;-81
2023/05/09 00:26:45;;;;;;;43.63;26.52;;;;;;;13.31;100.00;101565.78;10522635;28;20100;-81
2023/05/09 00:31:45;;;;;;;49.08;25.70;;;;;;;13.21;100.00;101557.47;10526554;28;20089;-81
2023/05/09 00:36:46;;;;;;;55.00;30.75;;;;;;;13.15;100.00;101559.81;10514499;28;20436;-81
2023/05/09 00:41:46;;;;;;;47.80;27.92;;;;;;;13.12;100.00;101551.78;10526152;28;20070;-81
2023/05/09 00:46:47;;;;;;;49.40;25.70;;;;;;;13.11;100.00;101554.34;10526160;28;20040;-81
2023/05/09 00:51:47;;;;;;;53.90;26.73;;;;;;;13.12;100.00;101550.88;10510224;28;20504;-81
2023/05/09 00:56:48;;;;;;;53.40;30.17;;;;;;;13.09;100.00;101540.22;10506506;28;20119;-81
2023/05/09 01:01:49;;;;;;;51.25;26.90;;;;;;;13.01;100.00;101526.69;10526951;28;20127;-82
2023/05/09 01:06:55;;;;;;;47.08;26.88;;;;;;;12.88;100.00;101510.34;10495542;28;20086;-82
2023/05/09 01:12:20;;;;;;;46.40;25.30;;;;;;;12.71;100.00;101513.88;10495996;28;20376;-81
2023/05/09 01:17:49;;;;;;;50.65;28.80;;;;;;;12.52;100.00;101504.19;10522898;28;20039;-81
2023/05/09 01:23:00;;;;;;;55.38;26.52;;;;;;;12.39;100.00;101519.34;10522865;28;20070;-81
2023/05/09 01:28:19;;;;;;;50.90;27.92;;;;;;;12.28;100.00;101512.63;10515745;28;20040;-81
2023/05/09 01:33:20;;;;;;;51.40;28.73;;;;;;;12.26;100.00;101506.41;10517990;28;20498;-81
2023/05/09 01:38:21;;;;;;;49.88;31.10;;;;;;;12.21;100.00;101502.66;10489627;28;20085;-81
2023/05/09 01:43:22;;;;;;;51.90;29.02;;;;;;;12.21;100.00;101503.53;10498105;28;20105;-81
2023/05/09 01:48:25;;;;;;;56.42;30.15;;;;;;;12.28;100.00;101500.41;10507153;28;20032;-81
2023/05/09 01:53:25;;;;;;;54.67;29.80;;;;;;;12.36;100.00;101492.94;10506935;28;20032;-81
2023/05/09 01:58:26;;;;;;;57.13;28.63;;;;;;;12.42;100.00;101490.63;10507320;28;20115;-80
2023/05/09 02:03:26;;;;;;;59.25;30.52;;;;;;;12.46;100.00;101489.94;10494496;28;20066;-80
2023/05/09 02:08:27;;;;;;;66.72;32.38;;;;;;;12.50;100.00;101482.22;10490909;28;20492;-80
2023/05/09 02:13:28;;;;;;;55.30;28.08;;;;;;;12.54;100.00;101487.69;10520724;28;20032;-80
2023/05/09 02:18:28;;;;;;;55.35;29.55;;;;;;;12.57;100.00;101482.59;10475979;28;20033;-81
2023/05/09 02:23:29;;;;;;;51.70;27.20;;;;;;;12.62;100.00;101490.72;10509282;28;20123;-81
2023/05/09 02:28:29;;;;;;;50.90;29.13;;;;;;;12.65;100.00;101482.97;10515413;28;20063;-81
2023/05/09 02:33:30;;;;;;;46.55;25.40;;;;;;;12.69;100.00;101478.75;10528025;28;20115;-81
2023/05/09 02:38:31;;;;;;;48.58;27.15;;;;;;;12.70;100.00;101480.56;10514802;28;20105;-81
2023/05/09 02:43:31;;;;;;;44.22;25.27;;;;;;;12.73;100.00;101472.84;10513251;28;20052;-81
2023/05/09 02:48:32;;;;;;;44.10;25.48;;;;;;;12.77;100.00;101466.91;10514221;28;20072;-81
2023/05/09 02:53:32;;;;;;;43.25;27.05;;;;;;;12.80;100.00;101463.53;10530336;28;20142;-80
2023/05/09 02:58:33;;;;;;;46.05;25.92;;;;;;;12.79;100.00;101462.63;10514553;28;20177;-80
2023/05/09 03:03:33;;;;;;;48.78;27.10;;;;;;;12.78;100.00;101452.94;10495772;28;20812;-80
2023/05/09 03:08:34;;;;;;;43.58;25.48;;;;;;;12.76;100.00;101450.25;10531828;28;20050;-80
2023/05/09 03:13:34;;;;;;;42.38;25.00;;;;;;;12.78;100.00;101450.31;10528881;28;20115;-79
2023/05/09 03:18:35;;;;;;;49.10;24.58;;;;;;;12.78;100.00;101439.81;10530291;28;20471;-80
2023/05/09 03:23:35;;;;;;;52.28;25.95;;;;;;;12.83;100.00;101433.03;10527284;28;20115;-80
2023/05/09 03:28:37;;;;;;;50.72;26.33;;;;;;;12.82;100.00;101433.88;10510079;28;20032;-79
2023/05/09 03:33:37;;;;;;;35.93;23.00;;;;;;;12.84;100.00;101420.81;10474304;28;20553;-81
2023/05/09 03:38:38;;;;;;;40.70;23.23;;;;;;;12.85;100.00;101426.13;10528957;28;20309;-80
2023/05/09 03:43:38;;;;;;;38.08;24.52;;;;;;;12.86;100.00;101411.28;10528682;28;20500;-80
2023/05/09 03:48:39;;;;;;;38.67;22.52;;;;;;;12.87;100.00;101402.59;10522386;28;20123;-80
2023/05/09 03:53:39;;;;;;;35.95;21.70;;;;;;;12.87;100.00;101399.97;10527897;28;20500;-81
2023/05/09 03:58:40;;;;;;;30.90;20.80;;;;;;;12.88;100.00;101405.25;10528654;28;20119;-81
2023/05/09 04:03:41;;;;;;;43.03;22.70;;;;;;;12.89;100.00;101391.31;10516587;28;20555;-82
2023/05/09 04:08:41;;;;;;;38.35;23.40;;;;;;;12.89;100.00;101393.03;10524897;28;20136;-82
2023/05/09 04:13:42;;;;;;;34.47;20.70;;;;;;;12.91;100.00;101392.28;10527249;28;20040;-83
2023/05/09 04:18:42;;;;;;;37.85;21.30;;;;;;;12.95;100.00;101397.66;10507509;28;20135;-82
2023/05/09 04:23:43;;;;;;;34.47;22.25;;;;;;;12.97;100.00;101393.38;10488151;28;20139;-80
2023/05/09 04:28:43;;;;;;;35.00;21.55;;;;;;;12.98;100.00;101390.84;10497230;28;20476;-81
2023/05/09 04:33:44;;;;;;;30.10;18.92;;;;;;;13.01;100.00;101387.44;10517081;28;20040;-81
2023/05/09 04:38:45;;;;;;;37.80;20.75;;;;;;;13.07;100.00;101380.75;10524079;28;20075;-81
2023/05/09 04:43:46;;;;;;;36.13;22.05;;;;;;;13.15;100.00;101373.22;10525707;28;20369;-80
2023/05/09 04:48:46;;;;;;;35.13;21.10;;;;;;;13.17;100.00;101366.28;10506206;28;20138;-81
2023/05/09 04:53:47;;;;;;;34.88;20.00;;;;;;;13.39;100.00;101362.00;10525797;28;20040;-81
2023/05/09 04:58:47;;;;;;;29.58;19.27;;;;;;;13.67;100.00;101352.69;10504621;28;20131;-82
2023/05/09 05:03:48;;;;;;;32.63;20.65;;;;;;;13.92;100.00;101348.47;10525743;28;20135;-81
2023/05/09 05:08:48;;;;;;;28.05;16.20;;;;;;;14.08;100.00;101337.75;10508528;28;20127;-81
2023/05/09 05:13:49;;;;;;;27.55;17.65;;;;;;;14.19;100.00;101330.31;10523321;28;20558;-82
2023/05/09 05:18:49;;;;;;;28.13;17.75;;;;;;;14.40;100.00;101313.56;10525600;28;20055;-81
2023/05/09 05:23:50;;;;;;;24.38;17.38;;;;;;;14.43;100.00;101303.16;10524199;28;20097;-81
2023/05/09 05:28:54;;;;;;;25.30;18.33;;;;;;;14.48;100.00;101287.50;10507571;28;20140;-81
2023/05/09 05:33:54;;;;;;;25.13;18.15;;;;;;;14.46;100.00;101283.91;10505397;28;20039;-84
2023/05/09 05:38:55;;;;;;;30.25;22.10;;;;;;;14.63;100.00;101287.22;10522427;28;20119;-80
2023/05/09 05:43:55;;;;;;;42.55;27.42;;;;;;;14.85;100.00;101285.41;10488359;28;20128;-84
2023/05/09 05:48:56;;;;;;;37.70;23.42;;;;;;;14.77;100.00;101280.75;10521880;28;20122;-84
2023/05/09 05:53:56;;;;;;;33.72;23.15;;;;;;;14.96;100.00;101278.78;10503008;28;20139;-81
2023/05/09 05:58:57;;;;;;;31.92;20.95;;;;;;;15.23;100.00;101270.06;10501439;28;20063;-83
2023/05/09 06:03:57;;;;;;;34.72;18.75;;;;;;;15.55;100.00;101249.19;10524716;28;20074;-83
2023/05/09 06:08:58;;;;;;;23.80;19.05;;;;;;;16.20;100.00;101245.97;10519394;28;20071;-84
2023/05/09 06:13:58;;;;;;;29.77;19.15;;;;;;;16.46;100.00;101231.75;10499756;28;20119;-81
2023/05/09 06:18:59;;;;;;;26.95;16.73;;;;;;;16.66;100.00;101221.78;10508448;28;20148;-80
2023/05/09 06:24:01;;;;;;;26.65;17.67;;;;;;;16.64;100.00;101215.56;10505783;28;20051;-80
2023/05/09 06:29:02;;;;;;;23.48;16.23;;;;;;;17.21;100.00;101213.56;10521499;28;20032;-84
2023/05/09 06:34:03;;;;;;;23.80;16.15;;;;;;;17.51;100.00;101207.28;10507303;28;20040;-84
2023/05/09 06:39:04;;;;;;;17.75;14.63;;;;;;;17.66;100.00;101209.38;10498725;28;20035;-86
2023/05/09 06:44:04;;;;;;;21.97;13.90;;;;;;;17.82;100.00;101202.72;10505232;28;20494;-87
2023/05/09 06:49:05;;;;;;;19.85;15.77;;;;;;;18.16;100.00;101184.97;10520870;28;20059;-87
2023/05/09 06:54:05;;;;;;;21.90;13.93;;;;;;;19.22;100.00;101171.97;10519610;28;20386;-85
2023/05/09 06:59:06;;;;;;;17.57;12.43;;;;;;;19.58;100.00;101164.59;10516581;28;20123;-87
2023/05/09 07:04:07;;;;;;;17.30;13.10;;;;;;;19.50;100.00;101169.75;10512394;28;20135;-85
2023/05/09 07:09:07;;;;;;;18.97;13.53;;;;;;;19.62;100.00;101161.97;10517115;28;20503;-81
2023/05/09 07:14:08;;;;;;;19.37;13.30;;;;;;;19.36;100.00;101164.25;10530092;28;20060;-85
2023/05/09 07:19:08;;;;;;;16.93;12.47;;;;;;;18.99;100.00;101156.53;10493045;28;20503;-87
2023/05/09 07:24:09;;;;;;;14.23;11.97;;;;;;;18.72;100.00;101149.84;10519995;28;20126;-88
2023/05/09 07:29:09;;;;;;;15.98;11.77;;;;;;;18.82;100.00;101140.31;10526680;28;20051;-82
2023/05/09 07:34:10;;;;;;;18.40;13.00;;;;;;;18.77;100.00;101134.91;10517210;28;20055;-81
2023/05/09 07:39:12;;;;;;;18.88;12.70;;;;;;;18.68;100.00;101134.75;10510813;28;20040;-80
2023/05/09 07:44:12;;;;;;;17.00;12.17;;;;;;;18.47;100.00;101135.25;10531750;28;20127;-80
2023/05/09 07:49:12;;;;;;;11.98;9.73;;;;;;;18.70;100.00;101121.53;10530576;28;20047;-81
2023/05/09 07:54:13;;;;;;;15.95;10.95;;;;;;;18.48;100.00;101124.66;10510537;28;20107;-81
2023/05/09 07:59:14;;;;;;;14.43;8.93;;;;;;;18.43;100.00;101117.50;10530266;28;20432;-83
2023/05/09 08:04:14;;;;;;;10.03;6.90;;;;;;;18.56;100.00;101111.56;10529845;28;20048;-86
2023/05/09 08:09:15;;;;;;;10.60;7.13;;;;;;;18.45;100.00;101106.06;10529831;28;20046;-84
2023/05/09 08:14:15;;;;;;;11.55;8.57;;;;;;;17.95;100.00;101103.25;10527249;28;20111;-86
2023/05/09 08:19:16;;;;;;;9.18;5.88;;;;;;;17.66;100.00;101093.84;10527649;28;20056;-85
2023/05/09 08:24:16;;;;;;;9.63;5.47;;;;;;;18.00;100.00;101081.34;10528676;28;20502;-80
2023/05/09 08:29:20;;;;;;;13.90;7.83;;;;;;;18.58;100.00;101070.09;10499865;28;20044;-82
2023/05/09 08:34:20;;;;;;;11.90;7.38;;;;;;;18.81;100.00;101063.38;10525274;28;20048;-82
2023/05/09 08:39:21;;;;;;;10.68;6.47;;;;;;;19.34;100.00;101057.19;10524467;28;20168;-82
2023/05/09 08:44:22;;;;;;;6.33;4.63;;;;;;;19.72;100.00;101054.16;10511379;28;20087;-82
2023/05/09 08:49:22;;;;;;;7.63;5.47;;;;;;;20.19;100.00;101047.66;10507937;28;20038;-82
2023/05/09 08:54:23;;;;;;;10.47;5.20;;;;;;;20.78;100.00;101056.22;10491619;28;20613;-81
2023/05/09 08:59:23;;;;;;;8.20;5.63;;;;;;;20.38;100.00;101050.50;10506589;28;20067;-81
2023/05/09 09:04:24;;;;;;;8.73;5.97;;;;;;;19.70;100.00;101042.63;10495088;28;20567;-78
2023/05/09 09:09:27;;;;;;;9.70;6.00;;;;;;;19.58;100.00;101038.03;10498858;28;20043;-79
2023/05/09 09:14:28;;;;;;;7.80;5.20;;;;;;;19.34;100.00;101043.91;10499899;28;20051;-80
2023/05/09 09:19:30;;;;;;;6.72;5.28;;;;;;;19.29;100.00;101035.88;10508071;28;20136;-80
2023/05/09 09:24:31;;;;;;;;;;;;;;;19.32;100.00;101035.91;10501174;28;20044;-80
2023/05/09 09:29:32;;;;;;;9.32;5.15;;;;;;;18.93;100.00;101021.16;10507813;28;19920;-81
2023/05/09 09:34:33;;;;;;;7.93;5.65;;;;;;;18.51;100.00;101024.88;10490658;28;20123;-82
2023/05/09 09:39:33;;;;;;;11.00;5.05;;;;;;;18.29;100.00;101028.06;10467929;28;20793;-80
2023/05/09 09:44:33;;;;;;;10.80;5.80;;;;;;;17.90;100.00;101021.09;10501153;28;20478;-80
2023/05/09 09:49:34;;;;;;;9.15;5.55;;;;;;;17.28;100.00;101023.31;10504402;28;20123;-80
2023/05/09 09:54:35;;;;;;;8.65;5.70;;;;;;;17.11;100.00;101027.31;10503893;28;20134;-79
2023/05/09 09:59:35;;;;;;;11.23;6.25;;;;;;;16.99;100.00;101014.72;10488145;28;20131;-80
2023/05/09 10:04:37;;;;;;;6.97;5.65;;;;;;;16.88;100.00;101014.41;10509672;28;20052;-80
2023/05/09 10:09:38;;;;;;;10.15;6.60;;;;;;;16.73;100.00;101017.59;10505998;28;20113;-81
2023/05/09 10:14:38;;;;;;;7.90;5.07;;;;;;;16.54;100.00;101013.59;10506230;28;20093;-81
2023/05/09 10:19:43;;;;;;;10.48;5.93;;;;;;;16.48;100.00;101006.41;10505727;28;20139;-81
2023/05/09 10:25:02;;;;;;;9.57;6.13;;;;;;;16.48;100.00;101006.41;10505072;28;20422;-81
2023/05/09 10:30:18;;;;;;;8.23;6.22;;;;;;;16.52;100.00;100992.44;10489995;28;20468;-80
2023/05/09 10:35:24;;;;;;;8.07;5.45;;;;;;;16.62;100.00;100993.53;10486456;28;20036;-81
2023/05/09 10:40:24;;;;;;;6.35;4.43;;;;;;;16.70;100.00;100989.34;10486255;28;20460;-80
2023/05/09 10:45:25;;;;;;;14.48;4.35;;;;;;;16.90;100.00;100972.19;10499450;28;20039;-79
2023/05/09 10:50:26;;;;;;;6.55;4.15;;;;;;;17.03;100.00;100964.59;10506261;28;20123;-79
2023/05/09 10:55:48;;;;;;;7.25;4.22;;;;;;;16.93;100.00;100965.19;10505441;28;20044;-80
2023/05/09 11:00:49;;;;;;;5.40;3.33;;;;;;;16.56;100.00;100959.94;10514785;28;20043;-80
2023/05/09 11:05:59;;;;;;;4.37;3.23;;;;;;;16.36;100.00;100950.63;10529649;28;20430;-81
2023/05/09 11:11:06;;;;;;;4.53;2.80;;;;;;;16.60;100.00;100939.75;10518547;28;20035;-81
2023/05/09 11:16:10;;;;;;;5.13;3.08;;;;;;;16.69;100.00;100929.41;10496503;28;20506;-81
2023/05/09 11:21:13;;;;;;;8.32;3.60;;;;;;;16.66;100.00;100931.97;10509619;28;20400;-81
2023/05/09 11:26:14;;;;;;;5.10;4.07;;;;;;;16.46;100.00;100923.59;10477944;28;20044;-81
2023/05/09 11:31:16;;;;;;;6.65;2.50;;;;;;;16.52;100.00;100920.19;10483748;28;20447;-81
2023/05/09 11:36:26;;;;;;;4.10;3.00;;;;;;;16.92;100.00;100915.84;10496075;28;20036;-80
2023/05/09 11:41:27;;;;;;;3.85;2.55;;;;;;;17.16;100.00;100917.25;10520045;28;20797;-80
2023/05/09 11:46:28;;;;;;;5.68;2.15;;;;;;;17.31;100.00;100901.72;10528182;28;20040;-80
2023/05/09 11:51:28;;;;;;;3.08;2.13;;;;;;;17.16;100.00;100911.97;10509077;28;20123;-80
2023/05/09 11:56:29;;;;;;;4.57;3.20;;;;;;;17.02;100.00;100909.91;10531284;28;20078;-77
2023/05/09 12:01:29;;;;;;;4.40;2.78;;;;;;;16.83;100.00;100908.59;10510689;28;20060;-80
2023/05/09 12:06:31;;;;;;;6.47;3.10;;;;;;;16.50;100.00;100911.34;10491364;28;20040;-79
2023/05/09 12:11:33;;;;;;;5.03;3.22;;;;;;;16.06;100.00;100912.03;10510721;28;20051;-79
2023/05/09 12:16:34;;;;;;;;;;;;;;;15.76;100.00;100907.69;10528463;28;20454;-79
2023/05/09 12:21:34;;;;;;;5.88;4.07;;;;;;;15.56;100.00;100921.22;10526747;28;20011;-79
2023/05/09 12:26:35;;;;;;;8.02;4.40;;;;;;;15.49;100.00;100920.16;10529365;28;20040;-80
2023/05/09 12:31:36;;;;;;;11.43;6.60;;;;;;;15.15;100.00;100918.28;10508926;28;20357;-80
2023/05/09 12:36:36;;;;;;;8.05;5.13;;;;;;;14.50;100.00;100915.41;10527173;28;20123;-80
2023/05/09 12:41:48;;;;;;;8.13;4.63;;;;;;;14.30;100.00;100930.53;10510581;28;20143;-80
2023/05/09 12:47:00;;;;;;;9.15;4.50;;;;;;;13.93;100.00;100921.38;10508670;28;20047;-80
2023/05/09 12:52:00;;;;;;;6.40;4.40;;;;;;;13.67;100.00;100929.25;10525778;28;20036;-83
2023/05/09 12:57:03;;;;;;;6.38;5.22;;;;;;;13.61;100.00;100922.06;10524260;28;20070;-81
2023/05/09 13:02:03;;;;;;;9.77;5.53;;;;;;;13.74;100.00;100925.13;10527464;28;20093;-80
2023/05/09 13:07:07;;;;;;;9.45;5.93;;;;;;;14.09;100.00;100921.06;10500629;28;20117;-79
2023/05/09 13:12:08;;;;;;;9.70;6.05;;;;;;;14.36;100.00;100928.13;10473621;28;20454;-79
2023/05/09 13:17:09;;;;;;;7.80;4.38;;;;;;;14.37;100.00;100907.97;10508159;28;20036;-79
2023/05/09 13:22:09;;;;;;;7.82;4.68;;;;;;;14.34;100.00;100903.47;10507513;28;20115;-78
2023/05/09 13:27:12;;;;;;;6.18;4.05;;;;;;;14.43;100.00;100886.19;10512698;28;20032;-78
2023/05/09 13:32:12;;;;;;;7.07;4.95;;;;;;;14.52;100.00;100876.84;10524718;28;20036;-78
2023/05/09 13:37:13;;;;;;;6.85;3.90;;;;;;;14.63;100.00;100879.81;10501811;28;20064;-79
2023/05/09 13:42:13;;;;;;;6.95;4.05;;;;;;;14.59;100.00;100866.50;10508612;28;20071;-78
2023/05/09 13:47:13;;;;;;;5.88;3.67;;;;;;;14.67;100.00;100855.34;10522757;28;20107;-78
2023/05/09 13:52:15;;;;;;;7.57;4.97;;;;;;;14.64;100.00;100844.72;10526369;28;20071;-79
2023/05/09 13:57:15;;;;;;;4.95;3.13;;;;;;;14.58;100.00;100838.38;10526239;28;20036;-79
2023/05/09 14:02:16;;;;;;;6.70;3.63;;;;;;;14.60;100.00;100834.94;10490115;28;20086;-78
2023/05/09 14:07:16;;;;;;;4.70;2.67;;;;;;;14.73;100.00;100836.25;10526281;28;20092;-79
2023/05/09 14:12:18;;;;;;;6.32;2.83;;;;;;;14.61;100.00;100827.94;10522056;28;20124;-78
2023/05/09 14:17:18;;;;;;;4.95;2.75;;;;;;;14.36;100.00;100828.06;10528308;28;20079;-78
2023/05/09 14:22:19;;;;;;;6.18;3.38;;;;;;;14.21;100.00;100823.22;10532872;28;20069;-78
2023/05/09 14:27:20;;;;;;;6.22;3.42;;;;;;;14.07;100.00;100825.41;10498965;28;20059;-78
2023/05/09 14:32:20;;;;;;;5.00;2.45;;;;;;;13.92;100.00;100817.00;10532547;28;20364;-78
2023/05/09 14:37:21;;;;;;;3.17;2.30;;;;;;;13.93;100.00;100818.78;10533376;28;20056;-79
2023/05/09 14:42:21;;;;;;;3.95;2.05;;;;;;;13.91;100.00;100809.94;10530105;28;20472;-78
2023/05/09 14:47:22;;;;;;;9.75;2.10;;;;;;;13.77;100.00;100809.50;10532138;28;20121;-78
2023/05/09 14:52:22;;;;;;;3.25;2.30;;;;;;;13.68;100.00;100802.19;10534178;28;20075;-79
2023/05/09 14:57:23;;;;;;;4.25;2.33;;;;;;;13.65;100.00;100796.81;10529848;28;20177;-79
2023/05/09 15:02:24;;;;;;;4.05;1.95;;;;;;;13.71;100.00;100797.03;10532225;28;20071;-78
2023/05/09 15:07:25;;;;;;;3.33;2.13;;;;;;;13.75;100.00;100788.38;10530850;28;20040;-79
2023/05/09 15:12:25;;;;;;;8.13;3.35;;;;;;;13.81;100.00;100777.19;10531900;28;20292;-78
2023/05/09 15:17:26;;;;;;;9.13;3.22;;;;;;;13.93;100.00;100774.06;10529649;28;20075;-79
2023/05/09 15:22:26;;;;;;;5.90;3.20;;;;;;;14.02;100.00;100776.97;10527533;28;20482;-78
2023/05/09 15:27:27;;;;;;;9.02;4.18;;;;;;;14.05;100.00;100768.31;10532514;28;20520;-78
2023/05/09 15:32:27;;;;;;;3.47;2.28;;;;;;;13.98;100.00;100759.31;10525884;28;20123;-77
2023/05/09 15:37:28;;;;;;;5.75;3.17;;;;;;;13.98;100.00;100756.69;10529010;28;20144;-78
2023/05/09 15:42:28;;;;;;;5.88;3.30;;;;;;;13.85;100.00;100746.59;10510448;28;20090;-78
2023/05/09 15:47:29;;;;;;;7.88;4.15;;;;;;;13.86;100.00;100740.50;10500742;28;20060;-78
2023/05/09 15:52:30;;;;;;;14.02;4.75;;;;;;;13.88;100.00;100745.00;10529423;28;20055;-78
2023/05/09 15:57:30;;;;;;;5.30;2.88;;;;;;;13.91;100.00;100742.47;10527497;28;20119;-78
2023/05/09 16:02:31;;;;;;;4.80;3.42;;;;;;;13.78;100.00;100729.75;10530729;28;20464;-78
2023/05/09 16:07:31;;;;;;;4.97;2.60;;;;;;;13.58;100.00;100729.09;10525169;28;20135;-79
2023/05/09 16:12:32;;;;;;;6.88;3.22;;;;;;;13.43;100.00;100717.22;10530108;28;20510;-79
2023/05/09 16:17:33;;;;;;;8.18;3.63;;;;;;;13.51;100.00;100726.25;10527464;28;20131;-79
2023/05/09 16:22:33;;;;;;;7.00;3.70;;;;;;;13.55;100.00;100723.72;10487445;28;20123;-79
2023/05/09 16:27:34;;;;;;;4.82;2.78;;;;;;;13.41;100.00;100718.88;10490848;28;20052;-79
2023/05/09 16:32:34;;;;;;;5.05;3.30;;;;;;;13.45;100.00;100712.03;10512725;28;20050;-78
2023/05/09 16:37:35;;;;;;;6.95;4.25;;;;;;;13.50;100.00;100705.19;10506040;28;20050;-78
2023/05/09 16:42:37;;;;;;;6.25;4.22;;;;;;;13.56;100.00;100707.09;10478893;28;20036;-78
2023/05/09 16:47:38;;;;;;;6.47;4.10;;;;;;;13.50;100.00;100690.28;10516887;28;20850;-78
2023/05/09 16:52:38;;;;;;;5.40;3.53;;;;;;;13.43;100.00;100690.94;10518805;28;20071;-78
2023/05/09 16:57:39;;;;;;;7.88;4.63;;;;;;;13.36;100.00;100689.81;10526490;28;20135;-78
2023/05/09 17:02:40;;;;;;;9.27;4.25;;;;;;;13.30;100.00;100686.97;10513730;28;20068;-77
2023/05/09 17:07:40;;;;;;;3.92;2.63;;;;;;;13.09;100.00;100697.63;10495651;28;20044;-78
2023/05/09 17:12:41;;;;;;;3.90;2.60;;;;;;;12.68;100.00;100689.19;10518335;28;20033;-77
2023/05/09 17:17:41;;;;;;;6.05;2.88;;;;;;;12.47;100.00;100693.72;10507492;28;20119;-77
2023/05/09 17:22:42;;;;;;;5.68;2.03;;;;;;;12.40;100.00;100690.78;10503643;28;20131;-78
2023/05/09 17:27:42;;;;;;;6.32;2.63;;;;;;;12.34;100.00;100697.59;10525964;28;20036;-78
2023/05/09 17:32:43;;;;;;;4.93;2.75;;;;;;;12.32;100.00;100695.75;10506655;28;20126;-77
2023/05/09 17:37:44;;;;;;;6.93;3.33;;;;;;;12.09;100.00;100681.75;10525408;28;20046;-77
2023/05/09 17:42:44;;;;;;;9.50;3.17;;;;;;;12.02;100.00;100686.75;10522113;28;20127;-78
2023/05/09 17:47:45;;;;;;;9.23;3.55;;;;;;;12.00;100.00;100677.94;10523867;28;20131;-79
2023/05/09 17:52:48;;;;;;;5.72;3.97;;;;;;;12.00;100.00;100674.44;10485882;28;20078;-78
2023/05/09 17:57:48;;;;;;;5.03;3.45;;;;;;;11.96;100.00;100677.75;10516399;28;20047;-78
2023/05/09 18:02:50;;;;;;;48.97;31.92;;;;;;;11.94;100.00;100672.44;10483094;28;20124;-82
2023/05/09 18:07:51;;;;;;;9.38;7.05;;;;;;;11.96;100.00;100673.38;10512064;28;20048;-80
2023/05/09 18:12:52;;;;;;;8.20;5.20;;;;;;;11.92;100.00;100670.59;10514583;28;20601;-81
2023/05/09 18:17:53;;;;;;;6.55;4.57;;;;;;;11.94;100.00;100671.56;10494318;28;20290;-81
2023/05/09 18:22:56;;;;;;;8.50;3.75;;;;;;;11.90;100.00;100671.44;10517070;28;20051;-80
2023/05/09 18:27:57;;;;;;;8.13;4.00;;;;;;;11.88;100.00;100672.19;10507305;28;20064;-81
2023/05/09 18:32:59;;;;;;;5.25;3.72;;;;;;;11.85;100.00;100672.97;10522767;28;20530;-81
2023/05/09 18:37:59;;;;;;;6.13;4.10;;;;;;;11.80;100.00;100671.00;10522800;28;20043;-83
2023/05/09 18:43:00;;;;;;;8.05;3.58;;;;;;;11.71;100.00;100661.94;10521930;28;20032;-82
2023/05/09 18:48:01;;;;;;;6.47;3.53;;;;;;;11.65;100.00;100681.78;10521179;28;20074;-80
2023/05/09 18:53:02;;;;;;;5.18;2.97;;;;;;;11.54;100.00;100676.09;10488902;28;20115;-83
2023/05/09 18:58:02;;;;;;;6.07;3.40;;;;;;;11.44;100.00;100675.72;10519495;28;20039;-82
2023/05/09 19:03:03;;;;;;;6.15;3.00;;;;;;;11.40;100.00;100675.53;10521943;28;20436;-82
2023/05/09 19:08:04;;;;;;;13.02;4.63;;;;;;;11.44;100.00;100669.59;10525650;28;20111;-83
2023/05/09 19:13:05;;;;;;;6.10;3.25;;;;;;;11.37;100.00;100675.41;10532154;28;20028;-83
2023/05/09 19:18:05;;;;;;;6.55;3.97;;;;;;;11.28;100.00;100675.91;10529405;28;20032;-83
2023/05/09 19:23:06;;;;;;;6.75;4.50;;;;;;;11.23;100.00;100677.44;10528956;28;20056;-84
2023/05/09 19:28:06;;;;;;;8.13;4.45;;;;;;;11.26;100.00;100675.84;10527619;28;20036;-84
2023/05/09 19:33:07;;;;;;;7.00;4.88;;;;;;;11.24;100.00;100679.22;10530205;28;20460;-84
2023/05/09 19:38:09;;;;;;;7.43;4.95;;;;;;;11.27;100.00;100685.50;10526950;28;20040;-84
2023/05/09 19:43:10;;;;;;;10.30;6.53;;;;;;;11.30;100.00;100687.34;10529556;28;20380;-84
2023/05/09 19:48:14;;;;;;;11.18;7.57;;;;;;;11.34;100.00;100676.16;10505622;28;20064;-81
2023/05/09 19:53:14;;;;;;;11.75;7.53;;;;;;;11.37;100.00;100686.78;10525243;28;20039;-82
2023/05/09 19:58:15;;;;;;;10.13;7.63;;;;;;;11.33;100.00;100690.09;10520454;28;20501;-81
2023/05/09 20:03:15;;;;;;;14.00;8.18;;;;;;;11.31;100.00;100695.28;10528896;28;20043;-81
2023/05/09 20:08:16;;;;;;;11.18;7.63;;;;;;;11.30;100.00;100690.88;10529183;28;20048;-81
2023/05/09 20:13:16;;;;;;;15.70;10.50;;;;;;;11.29;100.00;100691.72;10528505;28;20028;-81
2023/05/09 20:18:17;;;;;;;12.30;9.10;;;;;;;11.31;100.00;100681.28;10528996;28;20478;-81
2023/05/09 20:23:17;;;;;;;15.23;11.13;;;;;;;11.28;100.00;100682.06;10528457;28;20028;-81
2023/05/09 20:28:19;;;;;;;16.02;11.40;;;;;;;11.28;100.00;100674.19;10527936;28;20042;-81
2023/05/09 20:33:19;;;;;;;14.80;9.40;;;;;;;11.26;100.00;100670.63;10528926;28;20118;-81
2023/05/09 20:38:20;;;;;;;15.98;10.07;;;;;;;11.30;100.00;100674.25;10509743;28;20270;-81
2023/05/09 20:43:21;;;;;;;17.75;11.32;;;;;;;11.31;100.00;100676.94;10527591;28;20120;-80
2023/05/09 20:48:22;;;;;;;18.48;13.18;;;;;;;11.35;100.00;100677.06;10509010;28;20395;-80
2023/05/09 20:53:28;;;;;;;19.00;11.57;;;;;;;11.35;100.00;100672.72;10490182;28;20044;-80
2023/05/09 20:58:32;;;;;;;19.75;13.10;;;;;;;11.37;100.00;100678.03;10499868;28;20052;-80
2023/05/09 21:03:33;;;;;;;22.40;13.85;;;;;;;11.38;100.00;100678.06;10509552;28;20050;-80
2023/05/09 21:08:33;;;;;;;23.48;15.57;;;;;;;11.39;100.00;100681.59;10525485;28;20054;-80
2023/05/09 21:13:34;;;;;;;25.83;16.10;;;;;;;11.38;100.00;100667.59;10527806;28;20062;-80
2023/05/09 21:18:35;;;;;;;24.85;15.77;;;;;;;11.38;100.00;100679.81;10525417;28;20043;-81
2023/05/09 21:23:35;;;;;;;25.38;18.48;;;;;;;11.38;100.00;100680.69;10522647;28;20040;-81
2023/05/09 21:28:36;;;;;;;25.25;15.75;;;;;;;11.42;100.00;100674.75;10523893;28;20093;-80
2023/05/09 21:33:36;;;;;;;32.45;18.50;;;;;;;11.45;100.00;100680.13;10524906;28;20036;-81
2023/05/09 21:38:37;;;;;;;25.60;17.65;;;;;;;11.44;100.00;100674.84;10526488;28;20052;-81
2023/05/09 21:43:37;;;;;;;30.55;18.42;;;;;;;11.44;100.00;100666.97;10524881;28;20488;-81
2023/05/09 21:48:38;;;;;;;28.27;17.55;;;;;;;11.49;100.00;100660.19;10525826;28;20061;-80
2023/05/09 21:53:38;;;;;;;31.10;19.58;;;;;;;11.47;100.00;100661.84;10523910;28;20207;-80
2023/05/09 21:58:39;;;;;;;34.85;20.52;;;;;;;11.46;100.00;100657.44;10524079;28;20383;-80
2023/05/09 22:03:40;;;;;;;35.65;18.88;;;;;;;11.44;100.00;100659.09;10523740;28;20123;-80
2023/05/09 22:08:40;;;;;;;33.78;21.13;;;;;;;11.45;100.00;100658.28;10525156;28;20122;-79
2023/05/09 22:13:41;;;;;;;35.28;21.42;;;;;;;11.50;100.00;100661.06;10482164;28;20846;-79
2023/05/09 22:18:41;;;;;;;39.42;21.60;;;;;;;11.48;100.00;100662.72;10482590;28;20059;-80
2023/05/09 22:23:42;;;;;;;44.47;22.33;;;;;;;11.49;100.00;100667.13;10481272;28;20041;-80
2023/05/09 22:28:43;;;;;;;38.38;24.00;;;;;;;11.47;100.00;100669.72;10482927;28;20067;-80
2023/05/09 22:33:43;;;;;;;41.25;24.08;;;;;;;11.42;100.00;100663.38;10463702;28;20036;-80